Suapan, Botswana
Current Conditions -  °F | °C
As of 11:00 PM on Saturday 20 Dec 2014 (Local Time) from FBFT Reporting Station
Scattered Clouds Scattered Clouds  
Wind Chill: 72°   Ceiling: Unl
Heat Index: 72°   Visibility: 6mi
Dew Point: 68°   Wind: 1mph
Humidity: 88%   Direction: NA
Pressure: 30"   Gusts: NA
Location:  20.47°S, 25.98°E
Report Text: FBFT 202100Z VRB01KT 9999 FEW030CB SCT065 22/20 Q1016
Loading
Personal Weather Stations






























Interactive Weather Map New forecast layout! Learn more

10-Day Weather Forecast

Advertisements
Track Severe Weather on mobile